sensor_id;sensor_type;location;lat;lon;timestamp;pressure;altitude;pressure_sealevel;temperature;humidity
77702;BME280;66868;42.708;23.404;2023-09-19T00:01:06;95567.47;;;18.19;73.01
77702;BME280;66868;42.708;23.404;2023-09-19T00:03:37;95569.75;;;18.22;72.97
77702;BME280;66868;42.708;23.404;2023-09-19T00:06:07;95567.56;;;18.18;73.07
77702;BME280;66868;42.708;23.404;2023-09-19T00:08:33;95567.66;;;18.06;74.01
77702;BME280;66868;42.708;23.404;2023-09-19T00:10:59;95573.69;;;18.05;73.94
77702;BME280;66868;42.708;23.404;2023-09-19T00:13:34;95568.84;;;18.02;73.63
77702;BME280;66868;42.708;23.404;2023-09-19T00:16:01;95549.00;;;17.84;74.17
77702;BME280;66868;42.708;23.404;2023-09-19T00:18:33;95577.44;;;18.01;74.51
77702;BME280;66868;42.708;23.404;2023-09-19T00:21:00;95556.63;;;17.95;74.29
77702;BME280;66868;42.708;23.404;2023-09-19T00:23:26;95566.28;;;18.02;73.97
77702;BME280;66868;42.708;23.404;2023-09-19T00:25:52;95555.59;;;17.97;73.57
77702;BME280;66868;42.708;23.404;2023-09-19T00:28:18;95548.81;;;17.96;73.59
77702;BME280;66868;42.708;23.404;2023-09-19T00:30:45;95568.69;;;18.04;73.66
77702;BME280;66868;42.708;23.404;2023-09-19T00:33:20;95569.06;;;17.99;73.79
77702;BME280;66868;42.708;23.404;2023-09-19T00:35:53;95566.06;;;17.94;74.07
77702;BME280;66868;42.708;23.404;2023-09-19T00:38:20;95540.88;;;17.79;73.94
77702;BME280;66868;42.708;23.404;2023-09-19T00:40:52;95563.75;;;17.91;74.08
77702;BME280;66868;42.708;23.404;2023-09-19T00:43:18;95556.53;;;17.85;74.55
77702;BME280;66868;42.708;23.404;2023-09-19T00:45:46;95537.97;;;17.72;74.26
77702;BME280;66868;42.708;23.404;2023-09-19T00:48:13;95536.56;;;17.79;74.26
77702;BME280;66868;42.708;23.404;2023-09-19T00:50:41;95541.44;;;17.82;74.45
77702;BME280;66868;42.708;23.404;2023-09-19T00:53:07;95535.50;;;17.82;74.50
77702;BME280;66868;42.708;23.404;2023-09-19T00:55:34;95530.84;;;17.76;74.50
77702;BME280;66868;42.708;23.404;2023-09-19T00:58:00;95541.28;;;17.52;76.28
77702;BME280;66868;42.708;23.404;2023-09-19T01:00:26;95537.25;;;17.38;76.51
77702;BME280;66868;42.708;23.404;2023-09-19T01:02:52;95540.75;;;17.37;76.44
77702;BME280;66868;42.708;23.404;2023-09-19T01:05:18;95536.00;;;17.33;77.31
77702;BME280;66868;42.708;23.404;2023-09-19T01:07:43;95542.03;;;17.32;77.33
77702;BME280;66868;42.708;23.404;2023-09-19T01:10:14;95521.72;;;17.19;77.37
77702;BME280;66868;42.708;23.404;2023-09-19T01:21:11;95539.47;;;17.32;77.51
77702;BME280;66868;42.708;23.404;2023-09-19T01:26:23;95540.75;;;17.26;77.40
77702;BME280;66868;42.708;23.404;2023-09-19T01:31:23;95541.84;;;17.12;78.03
77702;BME280;66868;42.708;23.404;2023-09-19T01:34:03;95536.72;;;17.12;78.14
77702;BME280;66868;42.708;23.404;2023-09-19T01:36:35;95551.34;;;17.21;78.05
77702;BME280;66868;42.708;23.404;2023-09-19T01:39:05;95545.88;;;17.26;77.78
77702;BME280;66868;42.708;23.404;2023-09-19T01:44:57;95539.47;;;17.32;77.58
77702;BME280;66868;42.708;23.404;2023-09-19T01:47:35;95540.19;;;17.34;77.53
77702;BME280;66868;42.708;23.404;2023-09-19T01:52:40;95519.84;;;17.21;76.98
77702;BME280;66868;42.708;23.404;2023-09-19T01:55:09;95545.53;;;17.31;77.17
77702;BME280;66868;42.708;23.404;2023-09-19T01:57:44;95518.44;;;17.17;76.85
77702;BME280;66868;42.708;23.404;2023-09-19T02:00:14;95540.19;;;17.34;76.66
77702;BME280;66868;42.708;23.404;2023-09-19T02:02:44;95527.66;;;17.19;76.85
77702;BME280;66868;42.708;23.404;2023-09-19T02:05:10;95538.56;;;17.21;76.82
77702;BME280;66868;42.708;23.404;2023-09-19T02:07:38;95557.03;;;17.25;76.61
77702;BME280;66868;42.708;23.404;2023-09-19T02:10:05;95567.06;;;17.28;76.59
77702;BME280;66868;42.708;23.404;2023-09-19T02:12:31;95484.69;;;16.80;76.68
77702;BME280;66868;42.708;23.404;2023-09-19T02:14:58;95482.38;;;16.77;76.29
77702;BME280;66868;42.708;23.404;2023-09-19T02:17:24;95530.22;;;17.08;76.70
77702;BME280;66868;42.708;23.404;2023-09-19T02:19:54;95547.41;;;17.17;77.04
77702;BME280;66868;42.708;23.404;2023-09-19T02:22:21;95541.03;;;17.12;77.01
77702;BME280;66868;42.708;23.404;2023-09-19T02:24:48;95534.63;;;17.06;77.00
77702;BME280;66868;42.708;23.404;2023-09-19T02:27:14;95555.34;;;17.14;76.61
77702;BME280;66868;42.708;23.404;2023-09-19T02:29:41;95548.59;;;17.13;77.01
77702;BME280;66868;42.708;23.404;2023-09-19T02:32:07;95550.44;;;17.11;76.89
77702;BME280;66868;42.708;23.404;2023-09-19T02:34:35;95542.31;;;17.06;76.61
77702;BME280;66868;42.708;23.404;2023-09-19T02:37:04;95509.53;;;16.89;77.00
77702;BME280;66868;42.708;23.404;2023-09-19T02:39:36;95529.09;;;17.01;77.34
77702;BME280;66868;42.708;23.404;2023-09-19T02:42:01;95526.06;;;16.96;77.39
77702;BME280;66868;42.708;23.404;2023-09-19T02:44:29;95525.72;;;16.90;77.48
77702;BME280;66868;42.708;23.404;2023-09-19T02:46:55;95525.13;;;16.86;77.44
77702;BME280;66868;42.708;23.404;2023-09-19T02:49:20;95516.06;;;16.82;77.83
77702;BME280;66868;42.708;23.404;2023-09-19T02:51:45;95520.72;;;16.77;77.94
77702;BME280;66868;42.708;23.404;2023-09-19T02:54:12;95504.00;;;16.73;77.99
77702;BME280;66868;42.708;23.404;2023-09-19T02:56:39;95491.09;;;16.63;78.28
77702;BME280;66868;42.708;23.404;2023-09-19T02:59:04;95510.72;;;16.74;78.44
77702;BME280;66868;42.708;23.404;2023-09-19T03:01:30;95494.22;;;16.67;77.91
77702;BME280;66868;42.708;23.404;2023-09-19T03:03:56;95503.19;;;16.72;78.39
77702;BME280;66868;42.708;23.404;2023-09-19T03:06:21;95500.72;;;16.71;78.38
77702;BME280;66868;42.708;23.404;2023-09-19T03:08:49;95491.91;;;16.64;78.45
77702;BME280;66868;42.708;23.404;2023-09-19T03:11:17;95505.16;;;16.69;78.28
77702;BME280;66868;42.708;23.404;2023-09-19T03:13:50;95484.09;;;16.54;78.58
77702;BME280;66868;42.708;23.404;2023-09-19T03:16:16;95499.13;;;16.59;78.61
77702;BME280;66868;42.708;23.404;2023-09-19T03:18:41;95513.03;;;16.55;78.74
77702;BME280;66868;42.708;23.404;2023-09-19T03:21:07;95502.91;;;16.53;78.51
77702;BME280;66868;42.708;23.404;2023-09-19T03:23:32;95418.81;;;16.06;78.62
77702;BME280;66868;42.708;23.404;2023-09-19T03:25:57;95469.66;;;16.42;78.71
77702;BME280;66868;42.708;23.404;2023-09-19T03:28:24;95467.00;;;16.44;78.82
77702;BME280;66868;42.708;23.404;2023-09-19T03:33:25;95470.16;;;16.36;78.98
77702;BME280;66868;42.708;23.404;2023-09-19T03:35:53;95487.22;;;16.47;78.99
77702;BME280;66868;42.708;23.404;2023-09-19T03:38:20;95490.72;;;16.46;78.88
77702;BME280;66868;42.708;23.404;2023-09-19T03:40:47;95496.41;;;16.49;78.65
77702;BME280;66868;42.708;23.404;2023-09-19T03:43:13;95474.44;;;16.35;78.35
77702;BME280;66868;42.708;23.404;2023-09-19T03:45:38;95480.97;;;16.40;78.46
77702;BME280;66868;42.708;23.404;2023-09-19T03:48:12;95504.19;;;16.48;78.78
77702;BME280;66868;42.708;23.404;2023-09-19T03:50:38;95498.59;;;16.43;78.69
77702;BME280;66868;42.708;23.404;2023-09-19T03:53:04;95511.16;;;16.46;78.64
77702;BME280;66868;42.708;23.404;2023-09-19T03:55:31;95511.03;;;16.47;78.83
77702;BME280;66868;42.708;23.404;2023-09-19T03:57:57;95507.66;;;16.47;78.85
77702;BME280;66868;42.708;23.404;2023-09-19T04:00:23;95516.28;;;16.46;78.84
77702;BME280;66868;42.708;23.404;2023-09-19T04:02:52;95519.19;;;16.41;79.11
77702;BME280;66868;42.708;23.404;2023-09-19T04:05:18;95506.63;;;16.27;79.06
77702;BME280;66868;42.708;23.404;2023-09-19T04:07:43;95529.28;;;16.31;79.38
77702;BME280;66868;42.708;23.404;2023-09-19T04:10:09;95526.25;;;16.26;79.17
77702;BME280;66868;42.708;23.404;2023-09-19T04:12:37;95526.44;;;16.23;79.59
77702;BME280;66868;42.708;23.404;2023-09-19T04:15:06;95499.28;;;16.11;79.16
77702;BME280;66868;42.708;23.404;2023-09-19T04:17:32;95494.50;;;16.07;79.61
77702;BME280;66868;42.708;23.404;2023-09-19T04:20:00;95511.31;;;16.09;79.34
77702;BME280;66868;42.708;23.404;2023-09-19T04:22:26;95528.28;;;16.10;79.66
77702;BME280;66868;42.708;23.404;2023-09-19T04:24:51;95530.84;;;16.10;79.81
77702;BME280;66868;42.708;23.404;2023-09-19T04:27:17;95528.56;;;16.18;80.15
77702;BME280;66868;42.708;23.404;2023-09-19T04:29:44;95526.94;;;16.17;79.80
77702;BME280;66868;42.708;23.404;2023-09-19T04:32:09;95528.09;;;16.24;79.69
77702;BME280;66868;42.708;23.404;2023-09-19T04:34:35;95451.16;;;15.83;79.37
77702;BME280;66868;42.708;23.404;2023-09-19T04:37:00;95526.59;;;16.33;79.53
77702;BME280;66868;42.708;23.404;2023-09-19T04:39:27;95510.34;;;16.23;79.53
77702;BME280;66868;42.708;23.404;2023-09-19T04:41:53;95508.81;;;16.20;79.67
77702;BME280;66868;42.708;23.404;2023-09-19T04:44:18;95531.81;;;16.43;79.78
77702;BME280;66868;42.708;23.404;2023-09-19T04:46:44;95506.13;;;16.33;79.84
77702;BME280;66868;42.708;23.404;2023-09-19T04:49:11;95527.41;;;16.56;79.90
77702;BME280;66868;42.708;23.404;2023-09-19T04:51:37;95531.28;;;16.61;79.59
77702;BME280;66868;42.708;23.404;2023-09-19T04:54:03;95510.47;;;16.55;79.49
77702;BME280;66868;42.708;23.404;2023-09-19T04:56:29;95524.44;;;16.73;79.27
77702;BME280;66868;42.708;23.404;2023-09-19T04:58:55;95524.78;;;16.79;79.10
77702;BME280;66868;42.708;23.404;2023-09-19T05:01:20;95497.00;;;16.75;78.55
77702;BME280;66868;42.708;23.404;2023-09-19T05:03:48;95517.69;;;16.94;78.54
77702;BME280;66868;42.708;23.404;2023-09-19T05:06:18;95511.16;;;17.01;79.08
77702;BME280;66868;42.708;23.404;2023-09-19T05:08:43;95443.91;;;16.67;78.75
77702;BME280;66868;42.708;23.404;2023-09-19T05:11:09;95511.22;;;17.22;78.15
77702;BME280;66868;42.708;23.404;2023-09-19T05:13:34;95511.22;;;17.33;78.57
77702;BME280;66868;42.708;23.404;2023-09-19T05:16:00;95495.41;;;17.28;78.20
77702;BME280;66868;42.708;23.404;2023-09-19T05:18:28;95510.34;;;17.44;77.92
77702;BME280;66868;42.708;23.404;2023-09-19T05:20:54;95444.63;;;17.12;77.53
77702;BME280;66868;42.708;23.404;2023-09-19T05:23:21;95511.91;;;17.67;77.53
77702;BME280;66868;42.708;23.404;2023-09-19T05:25:46;95511.69;;;17.70;77.02
77702;BME280;66868;42.708;23.404;2023-09-19T05:28:12;95515.75;;;17.73;76.69
77702;BME280;66868;42.708;23.404;2023-09-19T05:30:41;95506.88;;;17.77;76.42
77702;BME280;66868;42.708;23.404;2023-09-19T05:33:09;95504.53;;;17.85;76.63
77702;BME280;66868;42.708;23.404;2023-09-19T05:35:35;95488.84;;;17.78;75.95
77702;BME280;66868;42.708;23.404;2023-09-19T05:38:05;95511.09;;;17.98;75.42
77702;BME280;66868;42.708;23.404;2023-09-19T05:40:34;95506.00;;;18.08;75.06
77702;BME280;66868;42.708;23.404;2023-09-19T05:43:00;95503.09;;;18.13;75.22
77702;BME280;66868;42.708;23.404;2023-09-19T05:45:25;95505.84;;;18.21;75.08
77702;BME280;66868;42.708;23.404;2023-09-19T05:47:52;95501.69;;;18.29;75.16
77702;BME280;66868;42.708;23.404;2023-09-19T05:50:22;95465.50;;;18.23;74.57
77702;BME280;66868;42.708;23.404;2023-09-19T05:52:52;95496.84;;;18.57;74.38
77702;BME280;66868;42.708;23.404;2023-09-19T05:55:19;95495.97;;;18.67;73.56
77702;BME280;66868;42.708;23.404;2023-09-19T05:57:49;95475.44;;;18.67;73.43
77702;BME280;66868;42.708;23.404;2023-09-19T06:00:15;95477.47;;;18.73;72.92
77702;BME280;66868;42.708;23.404;2023-09-19T06:02:43;95501.44;;;18.93;72.69
77702;BME280;66868;42.708;23.404;2023-09-19T06:05:10;95497.03;;;19.05;72.36
77702;BME280;66868;42.708;23.404;2023-09-19T06:07:37;95489.47;;;19.13;72.04
77702;BME280;66868;42.708;23.404;2023-09-19T06:10:03;95486.78;;;19.24;71.69
77702;BME280;66868;42.708;23.404;2023-09-19T06:12:31;95495.16;;;19.26;72.06
77702;BME280;66868;42.708;23.404;2023-09-19T06:14:58;95482.47;;;19.24;71.55
77702;BME280;66868;42.708;23.404;2023-09-19T06:17:24;95476.81;;;19.40;71.05
77702;BME280;66868;42.708;23.404;2023-09-19T06:19:52;95479.25;;;19.41;70.67
77702;BME280;66868;42.708;23.404;2023-09-19T06:22:17;95472.53;;;19.50;70.70
77702;BME280;66868;42.708;23.404;2023-09-19T06:24:44;95475.50;;;19.65;70.33
77702;BME280;66868;42.708;23.404;2023-09-19T06:27:09;95476.28;;;19.75;69.72
77702;BME280;66868;42.708;23.404;2023-09-19T06:29:35;95467.91;;;19.82;69.17
77702;BME280;66868;42.708;23.404;2023-09-19T06:32:06;95455.31;;;19.79;68.85
77702;BME280;66868;42.708;23.404;2023-09-19T06:34:32;95474.38;;;20.06;68.30
77702;BME280;66868;42.708;23.404;2023-09-19T06:36:58;95478.69;;;20.15;67.62
77702;BME280;66868;42.708;23.404;2023-09-19T06:39:23;95462.16;;;20.17;67.39
77702;BME280;66868;42.708;23.404;2023-09-19T06:41:51;95474.59;;;20.32;66.46
77702;BME280;66868;42.708;23.404;2023-09-19T06:44:18;95475.13;;;20.35;66.48
77702;BME280;66868;42.708;23.404;2023-09-19T06:46:46;95475.63;;;20.48;65.33
77702;BME280;66868;42.708;23.404;2023-09-19T06:49:15;95479.25;;;20.55;65.67
77702;BME280;66868;42.708;23.404;2023-09-19T06:51:40;95485.00;;;20.67;65.17
77702;BME280;66868;42.708;23.404;2023-09-19T06:54:07;95489.59;;;20.73;65.16
77702;BME280;66868;42.708;23.404;2023-09-19T06:56:32;95487.94;;;20.82;64.44
77702;BME280;66868;42.708;23.404;2023-09-19T06:58:58;95486.13;;;20.92;64.00
77702;BME280;66868;42.708;23.404;2023-09-19T07:01:23;95484.63;;;20.99;63.53
77702;BME280;66868;42.708;23.404;2023-09-19T07:03:50;95482.94;;;21.07;62.85
77702;BME280;66868;42.708;23.404;2023-09-19T07:06:16;95477.47;;;21.10;62.08
77702;BME280;66868;42.708;23.404;2023-09-19T07:08:41;95494.53;;;21.21;62.06
77702;BME280;66868;42.708;23.404;2023-09-19T07:11:07;95495.28;;;21.31;62.17
77702;BME280;66868;42.708;23.404;2023-09-19T07:13:32;95487.94;;;21.36;61.51
77702;BME280;66868;42.708;23.404;2023-09-19T07:15:58;95496.13;;;21.49;61.72
77702;BME280;66868;42.708;23.404;2023-09-19T07:18:25;95497.00;;;21.58;61.88
77702;BME280;66868;42.708;23.404;2023-09-19T07:20:50;95465.19;;;21.49;61.94
77702;BME280;66868;42.708;23.404;2023-09-19T07:23:21;95472.53;;;21.62;61.33
77702;BME280;66868;42.708;23.404;2023-09-19T07:25:48;95490.25;;;21.83;61.53
77702;BME280;66868;42.708;23.404;2023-09-19T07:28:14;95494.53;;;21.92;60.92
77702;BME280;66868;42.708;23.404;2023-09-19T07:30:40;95493.97;;;21.98;60.77
77702;BME280;66868;42.708;23.404;2023-09-19T07:33:07;95489.03;;;22.05;61.12
77702;BME280;66868;42.708;23.404;2023-09-19T07:35:33;95475.19;;;22.06;60.15
77702;BME280;66868;42.708;23.404;2023-09-19T07:37:59;95491.34;;;22.16;59.67
77702;BME280;66868;42.708;23.404;2023-09-19T07:40:27;95493.19;;;22.23;59.70
77702;BME280;66868;42.708;23.404;2023-09-19T07:42:56;95490.66;;;22.31;59.10
77702;BME280;66868;42.708;23.404;2023-09-19T07:45:22;95490.06;;;22.37;58.45
77702;BME280;66868;42.708;23.404;2023-09-19T07:47:50;95480.84;;;22.35;58.08
77702;BME280;66868;42.708;23.404;2023-09-19T07:50:17;95497.16;;;22.43;58.28
77702;BME280;66868;42.708;23.404;2023-09-19T07:52:44;95494.59;;;22.43;58.14
77702;BME280;66868;42.708;23.404;2023-09-19T07:55:10;95497.47;;;22.40;58.06
77702;BME280;66868;42.708;23.404;2023-09-19T07:57:37;95497.16;;;22.43;58.15
77702;BME280;66868;42.708;23.404;2023-09-19T08:00:03;95503.81;;;22.46;58.04
77702;BME280;66868;42.708;23.404;2023-09-19T08:02:36;95498.47;;;22.47;57.65
77702;BME280;66868;42.708;23.404;2023-09-19T08:05:04;95499.16;;;22.50;57.91
77702;BME280;66868;42.708;23.404;2023-09-19T08:07:32;95500.13;;;22.57;57.69
77702;BME280;66868;42.708;23.404;2023-09-19T08:09:58;95498.22;;;22.59;57.47
77702;BME280;66868;42.708;23.404;2023-09-19T08:12:24;95494.69;;;22.60;57.55
77702;BME280;66868;42.708;23.404;2023-09-19T08:14:49;95488.31;;;22.72;57.59
77702;BME280;66868;42.708;23.404;2023-09-19T08:17:15;95489.31;;;22.79;56.92
77702;BME280;66868;42.708;23.404;2023-09-19T08:19:41;95481.41;;;22.80;56.46
77702;BME280;66868;42.708;23.404;2023-09-19T08:22:07;95479.97;;;22.86;56.78
77702;BME280;66868;42.708;23.404;2023-09-19T08:24:35;95457.69;;;22.85;56.41
77702;BME280;66868;42.708;23.404;2023-09-19T08:27:01;95473.25;;;23.01;56.60
77702;BME280;66868;42.708;23.404;2023-09-19T08:29:30;95463.75;;;23.02;56.67
77702;BME280;66868;42.708;23.404;2023-09-19T08:31:59;95456.81;;;23.10;56.51
77702;BME280;66868;42.708;23.404;2023-09-19T08:34:25;95447.47;;;23.17;56.12
77702;BME280;66868;42.708;23.404;2023-09-19T08:36:51;95460.56;;;23.32;55.87
77702;BME280;66868;42.708;23.404;2023-09-19T08:39:22;95472.28;;;23.44;55.43
77702;BME280;66868;42.708;23.404;2023-09-19T08:41:47;95457.22;;;23.40;55.06
77702;BME280;66868;42.708;23.404;2023-09-19T08:44:13;95480.03;;;23.60;54.79
77702;BME280;66868;42.708;23.404;2023-09-19T08:46:41;95471.66;;;23.66;53.85
77702;BME280;66868;42.708;23.404;2023-09-19T08:51:59;95465.34;;;23.85;53.82
77702;BME280;66868;42.708;23.404;2023-09-19T08:54:29;95460.16;;;23.93;53.40
77702;BME280;66868;42.708;23.404;2023-09-19T08:57:00;95464.03;;;23.97;53.62
77702;BME280;66868;42.708;23.404;2023-09-19T08:59:30;95458.84;;;24.05;53.16
77702;BME280;66868;42.708;23.404;2023-09-19T09:01:56;95440.75;;;23.97;53.04
77702;BME280;66868;42.708;23.404;2023-09-19T09:04:23;95472.78;;;24.20;52.21
77702;BME280;66868;42.708;23.404;2023-09-19T09:06:51;95470.66;;;24.24;51.70
77702;BME280;66868;42.708;23.404;2023-09-19T09:09:19;95438.78;;;24.15;51.93
77702;BME280;66868;42.708;23.404;2023-09-19T09:11:45;95455.91;;;24.33;51.32
77702;BME280;66868;42.708;23.404;2023-09-19T09:14:11;95435.91;;;24.27;51.45
77702;BME280;66868;42.708;23.404;2023-09-19T09:16:38;95449.44;;;24.45;51.09
77702;BME280;66868;42.708;23.404;2023-09-19T09:19:04;95448.75;;;24.51;51.25
77702;BME280;66868;42.708;23.404;2023-09-19T09:21:30;95446.16;;;24.59;51.44
77702;BME280;66868;42.708;23.404;2023-09-19T09:24:29;95442.69;;;24.75;51.72
77702;BME280;66868;42.708;23.404;2023-09-19T09:26:58;95434.06;;;24.90;51.34
77702;BME280;66868;42.708;23.404;2023-09-19T09:29:47;95435.94;;;25.04;50.63
77702;BME280;66868;42.708;23.404;2023-09-19T09:32:24;95420.84;;;25.08;50.11
77702;BME280;66868;42.708;23.404;2023-09-19T09:34:55;95437.75;;;25.27;50.15
77702;BME280;66868;42.708;23.404;2023-09-19T09:37:22;95435.56;;;25.38;49.67
77702;BME280;66868;42.708;23.404;2023-09-19T09:42:35;95424.63;;;25.51;48.85
77702;BME280;66868;42.708;23.404;2023-09-19T09:47:47;95422.84;;;25.74;48.58
77702;BME280;66868;42.708;23.404;2023-09-19T09:50:24;95421.88;;;25.90;48.17
77702;BME280;66868;42.708;23.404;2023-09-19T09:52:57;95418.34;;;26.06;47.64
77702;BME280;66868;42.708;23.404;2023-09-19T09:56:00;95414.31;;;26.18;47.18
77702;BME280;66868;42.708;23.404;2023-09-19T09:58:26;95402.72;;;26.28;47.39
77702;BME280;66868;42.708;23.404;2023-09-19T10:00:57;95411.06;;;26.38;47.15
77702;BME280;66868;42.708;23.404;2023-09-19T10:03:34;95414.09;;;26.57;47.02
77702;BME280;66868;42.708;23.404;2023-09-19T10:06:04;95397.31;;;26.59;46.17
77702;BME280;66868;42.708;23.404;2023-09-19T10:09:04;95401.00;;;26.65;46.04
77702;BME280;66868;42.708;23.404;2023-09-19T10:11:44;95413.31;;;26.77;46.05
77702;BME280;66868;42.708;23.404;2023-09-19T10:14:11;95407.53;;;26.75;46.41
77702;BME280;66868;42.708;23.404;2023-09-19T10:16:49;95416.81;;;26.85;46.36
77702;BME280;66868;42.708;23.404;2023-09-19T10:19:25;95401.97;;;26.78;45.59
77702;BME280;66868;42.708;23.404;2023-09-19T10:21:55;95404.81;;;26.83;45.73
77702;BME280;66868;42.708;23.404;2023-09-19T10:24:22;95403.69;;;26.86;45.91
77702;BME280;66868;42.708;23.404;2023-09-19T10:26:53;95396.41;;;26.81;45.50
77702;BME280;66868;42.708;23.404;2023-09-19T10:29:21;95380.91;;;26.73;45.89
77702;BME280;66868;42.708;23.404;2023-09-19T10:31:52;95395.34;;;26.91;45.66
77702;BME280;66868;42.708;23.404;2023-09-19T10:34:19;95397.41;;;26.95;45.63
77702;BME280;66868;42.708;23.404;2023-09-19T10:36:46;95382.16;;;26.92;45.68
77702;BME280;66868;42.708;23.404;2023-09-19T10:39:15;95381.25;;;27.00;45.59
77702;BME280;66868;42.708;23.404;2023-09-19T10:41:49;95384.28;;;27.03;45.64
77702;BME280;66868;42.708;23.404;2023-09-19T10:44:21;95381.13;;;27.08;45.53
77702;BME280;66868;42.708;23.404;2023-09-19T10:46:47;95384.31;;;27.10;45.53
77702;BME280;66868;42.708;23.404;2023-09-19T10:49:13;95376.66;;;27.02;45.11
77702;BME280;66868;42.708;23.404;2023-09-19T10:51:43;95373.44;;;27.00;45.52
77702;BME280;66868;42.708;23.404;2023-09-19T10:54:15;95376.66;;;27.02;45.38
77702;BME280;66868;42.708;23.404;2023-09-19T10:56:44;95382.84;;;27.01;45.07
77702;BME280;66868;42.708;23.404;2023-09-19T10:59:14;95373.06;;;27.03;45.49
77702;BME280;66868;42.708;23.404;2023-09-19T11:04:37;95368.25;;;27.00;44.83
77702;BME280;66868;42.708;23.404;2023-09-19T11:09:54;95369.63;;;27.17;44.84
77702;BME280;66868;42.708;23.404;2023-09-19T11:14:55;95364.16;;;27.33;44.43
77702;BME280;66868;42.708;23.404;2023-09-19T11:30:35;95359.03;;;27.89;43.28
77702;BME280;66868;42.708;23.404;2023-09-19T11:33:18;95336.22;;;27.91;42.65
77702;BME280;66868;42.708;23.404;2023-09-19T11:46:30;95328.72;;;28.50;42.08
77702;BME280;66868;42.708;23.404;2023-09-19T11:49:05;95315.78;;;28.70;40.70
77702;BME280;66868;42.708;23.404;2023-09-19T11:51:44;95309.66;;;29.10;41.21
77702;BME280;66868;42.708;23.404;2023-09-19T11:54:14;95307.91;;;29.30;40.06
77702;BME280;66868;42.708;23.404;2023-09-19T11:56:44;95312.13;;;29.58;40.78
77702;BME280;66868;42.708;23.404;2023-09-19T11:59:10;95298.06;;;29.65;40.18
77702;BME280;66868;42.708;23.404;2023-09-19T12:01:38;95309.28;;;29.92;39.76
77702;BME280;66868;42.708;23.404;2023-09-19T12:04:11;95314.66;;;30.23;39.28
77702;BME280;66868;42.708;23.404;2023-09-19T12:06:37;95316.50;;;30.67;38.70
77702;BME280;66868;42.708;23.404;2023-09-19T12:09:12;95312.16;;;30.93;37.12
77702;BME280;66868;42.708;23.404;2023-09-19T12:11:42;95318.66;;;31.15;37.17
77702;BME280;66868;42.708;23.404;2023-09-19T12:14:09;95302.34;;;31.69;37.20
77702;BME280;66868;42.708;23.404;2023-09-19T12:16:35;95294.25;;;32.68;34.44
77702;BME280;66868;42.708;23.404;2023-09-19T12:19:21;95306.94;;;34.12;32.74
77702;BME280;66868;42.708;23.404;2023-09-19T12:21:57;95318.56;;;35.70;30.65
77702;BME280;66868;42.708;23.404;2023-09-19T12:24:26;95309.03;;;36.89;27.60
77702;BME280;66868;42.708;23.404;2023-09-19T12:26:52;95319.72;;;38.42;25.90
77702;BME280;66868;42.708;23.404;2023-09-19T12:29:21;95330.09;;;39.36;23.63
77702;BME280;66868;42.708;23.404;2023-09-19T12:31:51;95324.50;;;40.88;23.23
77702;BME280;66868;42.708;23.404;2023-09-19T12:34:20;95322.25;;;42.36;21.45
77702;BME280;66868;42.708;23.404;2023-09-19T12:36:46;95338.13;;;43.77;20.93
77702;BME280;66868;42.708;23.404;2023-09-19T12:39:22;95336.72;;;45.07;18.80
77702;BME280;66868;42.708;23.404;2023-09-19T12:41:48;95315.50;;;46.00;18.43
77702;BME280;66868;42.708;23.404;2023-09-19T12:44:16;95336.94;;;47.05;17.75
77702;BME280;66868;42.708;23.404;2023-09-19T12:46:43;95325.28;;;47.61;16.55
77702;BME280;66868;42.708;23.404;2023-09-19T12:49:18;95351.25;;;48.12;15.80
77702;BME280;66868;42.708;23.404;2023-09-19T12:51:45;95359.19;;;48.76;15.56
77702;BME280;66868;42.708;23.404;2023-09-19T12:54:10;95358.63;;;49.41;15.30
77702;BME280;66868;42.708;23.404;2023-09-19T12:56:40;95357.59;;;49.99;14.62
77702;BME280;66868;42.708;23.404;2023-09-19T12:59:11;95354.19;;;50.47;14.68
77702;BME280;66868;42.708;23.404;2023-09-19T13:01:39;95337.75;;;50.89;14.63
77702;BME280;66868;42.708;23.404;2023-09-19T13:04:18;95355.84;;;51.40;13.67
77702;BME280;66868;42.708;23.404;2023-09-19T13:06:50;95354.94;;;51.76;13.10
77702;BME280;66868;42.708;23.404;2023-09-19T13:09:17;95348.81;;;52.07;13.67
77702;BME280;66868;42.708;23.404;2023-09-19T13:11:44;95344.44;;;52.34;13.17
77702;BME280;66868;42.708;23.404;2023-09-19T13:14:23;95345.31;;;52.38;12.88
77702;BME280;66868;42.708;23.404;2023-09-19T13:17:05;95341.59;;;52.42;12.73
77702;BME280;66868;42.708;23.404;2023-09-19T13:19:48;95328.31;;;52.53;12.85
77702;BME280;66868;42.708;23.404;2023-09-19T13:25:11;95336.09;;;52.74;12.70
77702;BME280;66868;42.708;23.404;2023-09-19T13:27:41;95330.88;;;52.81;12.11
77702;BME280;66868;42.708;23.404;2023-09-19T13:30:07;95338.44;;;52.91;12.53
77702;BME280;66868;42.708;23.404;2023-09-19T13:32:33;95337.00;;;52.78;12.75
77702;BME280;66868;42.708;23.404;2023-09-19T13:34:59;95328.09;;;52.77;12.50
77702;BME280;66868;42.708;23.404;2023-09-19T13:37:24;95325.84;;;52.32;12.68
77702;BME280;66868;42.708;23.404;2023-09-19T13:39:51;95313.56;;;52.35;13.12
77702;BME280;66868;42.708;23.404;2023-09-19T13:42:17;95313.91;;;52.49;12.46
77702;BME280;66868;42.708;23.404;2023-09-19T13:44:43;95313.06;;;52.64;12.75
77702;BME280;66868;42.708;23.404;2023-09-19T13:47:09;95316.75;;;52.72;12.73
77702;BME280;66868;42.708;23.404;2023-09-19T13:49:36;95310.09;;;52.85;12.54
77702;BME280;66868;42.708;23.404;2023-09-19T13:52:02;95318.97;;;53.05;12.46
77702;BME280;66868;42.708;23.404;2023-09-19T13:54:31;95308.16;;;53.05;12.29
77702;BME280;66868;42.708;23.404;2023-09-19T13:56:56;95316.53;;;53.15;12.05
77702;BME280;66868;42.708;23.404;2023-09-19T13:59:22;95307.16;;;53.09;12.30
77702;BME280;66868;42.708;23.404;2023-09-19T14:01:51;95301.69;;;52.90;12.32